sensor_id;sensor_type;location;lat;lon;timestamp;P1;durP1;ratioP1;P2;durP2;ratioP2
13329;SDS011;6734;48.638;8.896;2023-01-01T00:01:26;79.33;;;47.50;;
13329;SDS011;6734;48.638;8.896;2023-01-01T00:03:53;82.57;;;52.67;;
13329;SDS011;6734;48.638;8.896;2023-01-01T00:06:20;88.50;;;54.67;;
13329;SDS011;6734;48.638;8.896;2023-01-01T00:08:46;88.17;;;53.80;;
13329;SDS011;6734;48.638;8.896;2023-01-01T00:11:13;87.07;;;56.83;;
13329;SDS011;6734;48.638;8.896;2023-01-01T00:13:40;81.97;;;52.33;;
13329;SDS011;6734;48.638;8.896;2023-01-01T00:16:13;87.23;;;54.53;;
13329;SDS011;6734;48.638;8.896;2023-01-01T00:18:38;80.20;;;49.37;;
13329;SDS011;6734;48.638;8.896;2023-01-01T00:21:06;93.10;;;54.13;;
13329;SDS011;6734;48.638;8.896;2023-01-01T00:23:34;86.00;;;52.40;;
13329;SDS011;6734;48.638;8.896;2023-01-01T00:26:00;85.37;;;51.67;;
13329;SDS011;6734;48.638;8.896;2023-01-01T00:28:26;82.17;;;50.57;;
13329;SDS011;6734;48.638;8.896;2023-01-01T00:30:52;79.77;;;50.93;;
13329;SDS011;6734;48.638;8.896;2023-01-01T00:33:18;79.23;;;48.37;;
13329;SDS011;6734;48.638;8.896;2023-01-01T00:35:44;69.10;;;43.43;;
13329;SDS011;6734;48.638;8.896;2023-01-01T00:38:10;51.43;;;31.97;;
13329;SDS011;6734;48.638;8.896;2023-01-01T00:40:36;42.63;;;28.67;;
13329;SDS011;6734;48.638;8.896;2023-01-01T00:43:02;39.87;;;25.37;;
13329;SDS011;6734;48.638;8.896;2023-01-01T00:45:28;32.67;;;23.10;;
13329;SDS011;6734;48.638;8.896;2023-01-01T00:47:53;35.83;;;23.00;;
13329;SDS011;6734;48.638;8.896;2023-01-01T00:50:20;28.87;;;19.77;;
13329;SDS011;6734;48.638;8.896;2023-01-01T00:52:46;32.03;;;20.37;;
13329;SDS011;6734;48.638;8.896;2023-01-01T00:55:13;31.17;;;20.03;;
13329;SDS011;6734;48.638;8.896;2023-01-01T00:57:39;31.63;;;22.37;;
13329;SDS011;6734;48.638;8.896;2023-01-01T01:00:05;32.70;;;22.70;;
13329;SDS011;6734;48.638;8.896;2023-01-01T01:02:32;38.67;;;24.30;;
13329;SDS011;6734;48.638;8.896;2023-01-01T01:04:57;38.93;;;25.20;;
13329;SDS011;6734;48.638;8.896;2023-01-01T01:07:25;36.93;;;25.10;;
13329;SDS011;6734;48.638;8.896;2023-01-01T01:09:51;41.83;;;27.00;;
13329;SDS011;6734;48.638;8.896;2023-01-01T01:12:17;38.47;;;26.33;;
13329;SDS011;6734;48.638;8.896;2023-01-01T01:14:43;43.43;;;27.37;;
13329;SDS011;6734;48.638;8.896;2023-01-01T01:17:09;39.03;;;26.80;;
13329;SDS011;6734;48.638;8.896;2023-01-01T01:19:35;37.40;;;24.93;;
13329;SDS011;6734;48.638;8.896;2023-01-01T01:22:01;42.67;;;27.77;;
13329;SDS011;6734;48.638;8.896;2023-01-01T01:24:26;39.70;;;26.63;;
13329;SDS011;6734;48.638;8.896;2023-01-01T01:26:52;37.53;;;24.03;;
13329;SDS011;6734;48.638;8.896;2023-01-01T01:29:18;35.93;;;24.00;;
13329;SDS011;6734;48.638;8.896;2023-01-01T01:31:44;36.47;;;23.53;;
13329;SDS011;6734;48.638;8.896;2023-01-01T01:34:09;32.70;;;23.43;;
13329;SDS011;6734;48.638;8.896;2023-01-01T01:36:35;38.50;;;23.30;;
13329;SDS011;6734;48.638;8.896;2023-01-01T01:39:01;34.33;;;22.27;;
13329;SDS011;6734;48.638;8.896;2023-01-01T01:41:27;37.60;;;24.27;;
13329;SDS011;6734;48.638;8.896;2023-01-01T01:43:58;35.90;;;24.10;;
13329;SDS011;6734;48.638;8.896;2023-01-01T01:46:27;34.17;;;21.80;;
13329;SDS011;6734;48.638;8.896;2023-01-01T01:48:58;39.90;;;23.50;;
13329;SDS011;6734;48.638;8.896;2023-01-01T01:51:27;35.87;;;22.23;;
13329;SDS011;6734;48.638;8.896;2023-01-01T01:53:59;40.20;;;24.40;;
13329;SDS011;6734;48.638;8.896;2023-01-01T01:56:31;41.37;;;26.33;;
13329;SDS011;6734;48.638;8.896;2023-01-01T01:59:00;39.97;;;25.40;;
13329;SDS011;6734;48.638;8.896;2023-01-01T02:01:27;37.77;;;24.70;;
13329;SDS011;6734;48.638;8.896;2023-01-01T02:06:19;37.40;;;24.07;;
13329;SDS011;6734;48.638;8.896;2023-01-01T02:08:46;38.23;;;24.80;;
13329;SDS011;6734;48.638;8.896;2023-01-01T02:11:13;39.97;;;25.73;;
13329;SDS011;6734;48.638;8.896;2023-01-01T02:13:38;41.20;;;26.07;;
13329;SDS011;6734;48.638;8.896;2023-01-01T02:21:36;33.90;;;20.10;;
13329;SDS011;6734;48.638;8.896;2023-01-01T02:27:09;24.57;;;15.70;;
13329;SDS011;6734;48.638;8.896;2023-01-01T02:30:01;25.20;;;15.60;;
13329;SDS011;6734;48.638;8.896;2023-01-01T02:32:34;21.27;;;13.20;;
13329;SDS011;6734;48.638;8.896;2023-01-01T02:38:10;11.50;;;6.60;;
13329;SDS011;6734;48.638;8.896;2023-01-01T02:40:43;2.73;;;1.93;;
13329;SDS011;6734;48.638;8.896;2023-01-01T02:43:09;3.50;;;1.83;;
13329;SDS011;6734;48.638;8.896;2023-01-01T02:45:35;2.93;;;1.90;;
13329;SDS011;6734;48.638;8.896;2023-01-01T02:48:02;2.70;;;2.07;;
13329;SDS011;6734;48.638;8.896;2023-01-01T02:50:32;3.47;;;1.80;;
13329;SDS011;6734;48.638;8.896;2023-01-01T02:53:06;3.17;;;1.83;;
13329;SDS011;6734;48.638;8.896;2023-01-01T02:55:40;2.03;;;1.70;;
13329;SDS011;6734;48.638;8.896;2023-01-01T03:03:50;3.23;;;1.87;;
13329;SDS011;6734;48.638;8.896;2023-01-01T03:06:28;3.10;;;2.07;;
13329;SDS011;6734;48.638;8.896;2023-01-01T03:09:17;2.83;;;1.70;;
13329;SDS011;6734;48.638;8.896;2023-01-01T03:11:57;3.33;;;1.73;;
13329;SDS011;6734;48.638;8.896;2023-01-01T03:17:33;2.57;;;1.87;;
13329;SDS011;6734;48.638;8.896;2023-01-01T03:20:00;3.00;;;1.87;;
13329;SDS011;6734;48.638;8.896;2023-01-01T03:22:28;1.97;;;1.50;;
13329;SDS011;6734;48.638;8.896;2023-01-01T03:24:58;3.17;;;1.63;;
13329;SDS011;6734;48.638;8.896;2023-01-01T03:27:33;2.70;;;1.80;;
13329;SDS011;6734;48.638;8.896;2023-01-01T03:30:00;2.27;;;1.40;;
13329;SDS011;6734;48.638;8.896;2023-01-01T03:32:30;2.67;;;1.50;;
13329;SDS011;6734;48.638;8.896;2023-01-01T03:35:18;2.07;;;1.50;;
13329;SDS011;6734;48.638;8.896;2023-01-01T03:37:46;2.93;;;1.60;;
13329;SDS011;6734;48.638;8.896;2023-01-01T03:40:13;1.97;;;1.50;;
13329;SDS011;6734;48.638;8.896;2023-01-01T03:42:40;4.77;;;1.60;;
13329;SDS011;6734;48.638;8.896;2023-01-01T03:45:24;2.97;;;1.60;;
13329;SDS011;6734;48.638;8.896;2023-01-01T03:47:51;2.63;;;1.33;;
13329;SDS011;6734;48.638;8.896;2023-01-01T03:50:17;2.63;;;1.60;;
13329;SDS011;6734;48.638;8.896;2023-01-01T03:52:48;2.20;;;1.40;;
13329;SDS011;6734;48.638;8.896;2023-01-01T04:00:26;8.77;;;5.83;;
13329;SDS011;6734;48.638;8.896;2023-01-01T04:03:04;7.63;;;5.20;;
13329;SDS011;6734;48.638;8.896;2023-01-01T04:05:32;9.80;;;5.27;;
13329;SDS011;6734;48.638;8.896;2023-01-01T04:08:01;8.13;;;5.43;;
13329;SDS011;6734;48.638;8.896;2023-01-01T04:10:28;8.30;;;5.10;;
13329;SDS011;6734;48.638;8.896;2023-01-01T04:12:57;6.43;;;3.90;;
13329;SDS011;6734;48.638;8.896;2023-01-01T04:15:26;3.37;;;2.07;;
13329;SDS011;6734;48.638;8.896;2023-01-01T04:17:52;8.23;;;4.67;;
13329;SDS011;6734;48.638;8.896;2023-01-01T04:20:19;7.53;;;4.87;;
13329;SDS011;6734;48.638;8.896;2023-01-01T04:22:45;9.77;;;5.13;;
13329;SDS011;6734;48.638;8.896;2023-01-01T04:25:11;7.00;;;5.03;;
13329;SDS011;6734;48.638;8.896;2023-01-01T04:27:38;7.80;;;5.77;;
13329;SDS011;6734;48.638;8.896;2023-01-01T04:30:04;10.70;;;5.03;;
13329;SDS011;6734;48.638;8.896;2023-01-01T04:32:31;7.50;;;5.40;;
13329;SDS011;6734;48.638;8.896;2023-01-01T04:34:58;8.40;;;5.60;;
13329;SDS011;6734;48.638;8.896;2023-01-01T04:37:24;8.87;;;5.37;;
13329;SDS011;6734;48.638;8.896;2023-01-01T04:39:50;10.23;;;6.30;;
13329;SDS011;6734;48.638;8.896;2023-01-01T04:42:15;8.93;;;5.47;;
13329;SDS011;6734;48.638;8.896;2023-01-01T04:44:41;7.60;;;4.87;;
13329;SDS011;6734;48.638;8.896;2023-01-01T04:47:06;9.47;;;5.47;;
13329;SDS011;6734;48.638;8.896;2023-01-01T04:49:32;9.40;;;6.33;;
13329;SDS011;6734;48.638;8.896;2023-01-01T04:51:58;8.27;;;5.60;;
13329;SDS011;6734;48.638;8.896;2023-01-01T04:54:24;8.93;;;5.77;;
13329;SDS011;6734;48.638;8.896;2023-01-01T04:56:49;8.87;;;5.70;;
13329;SDS011;6734;48.638;8.896;2023-01-01T04:59:15;8.60;;;5.70;;
13329;SDS011;6734;48.638;8.896;2023-01-01T05:01:41;9.80;;;5.30;;
13329;SDS011;6734;48.638;8.896;2023-01-01T05:04:08;7.80;;;5.17;;
13329;SDS011;6734;48.638;8.896;2023-01-01T05:06:36;7.83;;;4.87;;
13329;SDS011;6734;48.638;8.896;2023-01-01T05:09:02;9.17;;;5.37;;
13329;SDS011;6734;48.638;8.896;2023-01-01T05:11:28;7.33;;;4.67;;
13329;SDS011;6734;48.638;8.896;2023-01-01T05:13:55;6.97;;;4.70;;
13329;SDS011;6734;48.638;8.896;2023-01-01T05:16:23;8.30;;;4.60;;
13329;SDS011;6734;48.638;8.896;2023-01-01T05:18:50;6.97;;;5.00;;
13329;SDS011;6734;48.638;8.896;2023-01-01T05:21:17;7.93;;;5.00;;
13329;SDS011;6734;48.638;8.896;2023-01-01T05:23:43;9.43;;;5.63;;
13329;SDS011;6734;48.638;8.896;2023-01-01T05:26:10;7.97;;;5.17;;
13329;SDS011;6734;48.638;8.896;2023-01-01T05:28:37;8.57;;;5.20;;
13329;SDS011;6734;48.638;8.896;2023-01-01T05:31:04;7.90;;;5.20;;
13329;SDS011;6734;48.638;8.896;2023-01-01T05:33:30;6.80;;;4.87;;
13329;SDS011;6734;48.638;8.896;2023-01-01T05:35:56;7.73;;;5.27;;
13329;SDS011;6734;48.638;8.896;2023-01-01T05:38:22;9.80;;;5.20;;
13329;SDS011;6734;48.638;8.896;2023-01-01T05:40:48;9.77;;;5.10;;
13329;SDS011;6734;48.638;8.896;2023-01-01T05:43:15;8.43;;;5.17;;
13329;SDS011;6734;48.638;8.896;2023-01-01T05:45:41;8.20;;;5.40;;
13329;SDS011;6734;48.638;8.896;2023-01-01T05:48:06;6.10;;;4.57;;
13329;SDS011;6734;48.638;8.896;2023-01-01T05:50:32;8.47;;;4.53;;
13329;SDS011;6734;48.638;8.896;2023-01-01T05:52:58;7.07;;;4.47;;
13329;SDS011;6734;48.638;8.896;2023-01-01T05:55:23;7.90;;;5.10;;
13329;SDS011;6734;48.638;8.896;2023-01-01T05:57:49;6.07;;;4.10;;
13329;SDS011;6734;48.638;8.896;2023-01-01T06:00:15;8.67;;;4.67;;
13329;SDS011;6734;48.638;8.896;2023-01-01T06:02:41;7.17;;;4.57;;
13329;SDS011;6734;48.638;8.896;2023-01-01T06:05:07;5.63;;;4.20;;
13329;SDS011;6734;48.638;8.896;2023-01-01T06:07:33;6.23;;;4.13;;
13329;SDS011;6734;48.638;8.896;2023-01-01T06:09:58;8.33;;;4.73;;
13329;SDS011;6734;48.638;8.896;2023-01-01T06:12:24;8.33;;;4.10;;
13329;SDS011;6734;48.638;8.896;2023-01-01T06:14:50;6.27;;;4.50;;
13329;SDS011;6734;48.638;8.896;2023-01-01T06:17:15;8.90;;;4.07;;
13329;SDS011;6734;48.638;8.896;2023-01-01T06:19:41;5.73;;;3.90;;
13329;SDS011;6734;48.638;8.896;2023-01-01T06:22:07;7.30;;;4.97;;
13329;SDS011;6734;48.638;8.896;2023-01-01T06:24:32;6.27;;;4.43;;
13329;SDS011;6734;48.638;8.896;2023-01-01T06:26:58;9.23;;;4.50;;
13329;SDS011;6734;48.638;8.896;2023-01-01T06:29:24;8.37;;;4.73;;
13329;SDS011;6734;48.638;8.896;2023-01-01T06:31:50;5.87;;;4.40;;
13329;SDS011;6734;48.638;8.896;2023-01-01T06:34:16;6.67;;;4.17;;
13329;SDS011;6734;48.638;8.896;2023-01-01T06:36:41;5.47;;;4.40;;
13329;SDS011;6734;48.638;8.896;2023-01-01T06:39:07;8.53;;;4.60;;
13329;SDS011;6734;48.638;8.896;2023-01-01T06:41:33;7.13;;;4.43;;
13329;SDS011;6734;48.638;8.896;2023-01-01T06:43:59;6.20;;;4.47;;
13329;SDS011;6734;48.638;8.896;2023-01-01T06:46:30;6.63;;;4.30;;
13329;SDS011;6734;48.638;8.896;2023-01-01T06:48:57;7.10;;;4.27;;
13329;SDS011;6734;48.638;8.896;2023-01-01T06:51:27;6.63;;;4.30;;
13329;SDS011;6734;48.638;8.896;2023-01-01T06:53:54;7.60;;;4.50;;
13329;SDS011;6734;48.638;8.896;2023-01-01T06:56:22;7.43;;;4.90;;
13329;SDS011;6734;48.638;8.896;2023-01-01T06:58:48;7.03;;;4.63;;
13329;SDS011;6734;48.638;8.896;2023-01-01T07:01:15;8.97;;;4.33;;
13329;SDS011;6734;48.638;8.896;2023-01-01T07:03:41;9.67;;;4.40;;
13329;SDS011;6734;48.638;8.896;2023-01-01T07:06:09;7.23;;;4.53;;
13329;SDS011;6734;48.638;8.896;2023-01-01T07:08:35;8.07;;;4.20;;
13329;SDS011;6734;48.638;8.896;2023-01-01T07:11:01;7.20;;;4.80;;
13329;SDS011;6734;48.638;8.896;2023-01-01T07:13:28;5.77;;;4.50;;
13329;SDS011;6734;48.638;8.896;2023-01-01T07:15:54;7.27;;;4.63;;
13329;SDS011;6734;48.638;8.896;2023-01-01T07:18:20;7.50;;;4.83;;
13329;SDS011;6734;48.638;8.896;2023-01-01T07:20:48;8.80;;;4.50;;
13329;SDS011;6734;48.638;8.896;2023-01-01T07:23:17;9.77;;;5.40;;
13329;SDS011;6734;48.638;8.896;2023-01-01T07:25:44;7.23;;;4.60;;
13329;SDS011;6734;48.638;8.896;2023-01-01T07:28:09;9.07;;;4.93;;
13329;SDS011;6734;48.638;8.896;2023-01-01T07:30:36;6.70;;;4.23;;
13329;SDS011;6734;48.638;8.896;2023-01-01T07:33:02;9.00;;;4.93;;
13329;SDS011;6734;48.638;8.896;2023-01-01T07:35:27;8.50;;;5.03;;
13329;SDS011;6734;48.638;8.896;2023-01-01T07:37:53;8.33;;;4.60;;
13329;SDS011;6734;48.638;8.896;2023-01-01T07:40:19;7.23;;;5.30;;
13329;SDS011;6734;48.638;8.896;2023-01-01T07:42:45;8.77;;;4.67;;
13329;SDS011;6734;48.638;8.896;2023-01-01T07:45:11;8.70;;;4.73;;
13329;SDS011;6734;48.638;8.896;2023-01-01T07:47:37;12.77;;;5.23;;
13329;SDS011;6734;48.638;8.896;2023-01-01T07:50:03;7.13;;;4.23;;
13329;SDS011;6734;48.638;8.896;2023-01-01T07:52:29;6.53;;;4.37;;
13329;SDS011;6734;48.638;8.896;2023-01-01T07:54:55;6.83;;;4.60;;
13329;SDS011;6734;48.638;8.896;2023-01-01T07:57:21;6.37;;;4.20;;
13329;SDS011;6734;48.638;8.896;2023-01-01T07:59:47;6.47;;;4.20;;
13329;SDS011;6734;48.638;8.896;2023-01-01T08:02:13;7.03;;;4.40;;
13329;SDS011;6734;48.638;8.896;2023-01-01T08:04:39;6.57;;;4.93;;
13329;SDS011;6734;48.638;8.896;2023-01-01T08:07:05;8.03;;;4.70;;
13329;SDS011;6734;48.638;8.896;2023-01-01T08:09:30;7.60;;;4.97;;
13329;SDS011;6734;48.638;8.896;2023-01-01T08:11:56;8.57;;;5.20;;
13329;SDS011;6734;48.638;8.896;2023-01-01T08:14:22;9.07;;;5.53;;
13329;SDS011;6734;48.638;8.896;2023-01-01T08:16:49;7.77;;;5.30;;
13329;SDS011;6734;48.638;8.896;2023-01-01T08:19:15;9.43;;;5.43;;
13329;SDS011;6734;48.638;8.896;2023-01-01T08:21:41;8.07;;;5.60;;
13329;SDS011;6734;48.638;8.896;2023-01-01T08:24:07;9.00;;;5.27;;
13329;SDS011;6734;48.638;8.896;2023-01-01T08:26:33;8.70;;;5.67;;
13329;SDS011;6734;48.638;8.896;2023-01-01T08:29:03;12.27;;;7.93;;
13329;SDS011;6734;48.638;8.896;2023-01-01T08:31:29;16.03;;;8.33;;
13329;SDS011;6734;48.638;8.896;2023-01-01T08:33:55;7.97;;;5.90;;
13329;SDS011;6734;48.638;8.896;2023-01-01T08:36:21;7.73;;;5.17;;
13329;SDS011;6734;48.638;8.896;2023-01-01T08:38:47;8.30;;;5.10;;
13329;SDS011;6734;48.638;8.896;2023-01-01T08:41:13;7.83;;;5.03;;
13329;SDS011;6734;48.638;8.896;2023-01-01T08:43:39;9.13;;;5.73;;
13329;SDS011;6734;48.638;8.896;2023-01-01T08:46:05;8.83;;;5.10;;
13329;SDS011;6734;48.638;8.896;2023-01-01T08:48:31;7.73;;;5.40;;
13329;SDS011;6734;48.638;8.896;2023-01-01T08:50:57;8.73;;;5.00;;
13329;SDS011;6734;48.638;8.896;2023-01-01T08:53:24;9.87;;;6.00;;
13329;SDS011;6734;48.638;8.896;2023-01-01T08:55:54;9.10;;;6.03;;
13329;SDS011;6734;48.638;8.896;2023-01-01T08:58:24;8.57;;;5.43;;
13329;SDS011;6734;48.638;8.896;2023-01-01T09:00:50;7.47;;;5.87;;
13329;SDS011;6734;48.638;8.896;2023-01-01T09:03:16;9.17;;;6.13;;
13329;SDS011;6734;48.638;8.896;2023-01-01T09:05:42;8.40;;;5.07;;
13329;SDS011;6734;48.638;8.896;2023-01-01T09:08:12;9.07;;;5.57;;
13329;SDS011;6734;48.638;8.896;2023-01-01T09:10:41;7.90;;;5.30;;
13329;SDS011;6734;48.638;8.896;2023-01-01T09:13:08;9.97;;;5.80;;
13329;SDS011;6734;48.638;8.896;2023-01-01T09:15:34;10.47;;;6.10;;
13329;SDS011;6734;48.638;8.896;2023-01-01T09:17:59;8.97;;;5.80;;
13329;SDS011;6734;48.638;8.896;2023-01-01T09:20:25;8.97;;;5.93;;
13329;SDS011;6734;48.638;8.896;2023-01-01T09:22:51;9.03;;;6.10;;
13329;SDS011;6734;48.638;8.896;2023-01-01T09:25:16;8.47;;;5.90;;
13329;SDS011;6734;48.638;8.896;2023-01-01T09:27:42;11.03;;;6.27;;
13329;SDS011;6734;48.638;8.896;2023-01-01T09:30:08;9.87;;;5.67;;
13329;SDS011;6734;48.638;8.896;2023-01-01T09:32:34;10.30;;;5.90;;
13329;SDS011;6734;48.638;8.896;2023-01-01T09:35:00;9.73;;;6.67;;
13329;SDS011;6734;48.638;8.896;2023-01-01T09:37:26;9.70;;;5.87;;
13329;SDS011;6734;48.638;8.896;2023-01-01T09:39:51;11.23;;;6.37;;
13329;SDS011;6734;48.638;8.896;2023-01-01T09:47:57;10.83;;;6.17;;
13329;SDS011;6734;48.638;8.896;2023-01-01T09:50:32;9.83;;;5.47;;
13329;SDS011;6734;48.638;8.896;2023-01-01T09:52:59;9.73;;;5.37;;
13329;SDS011;6734;48.638;8.896;2023-01-01T09:58:06;9.47;;;6.03;;
13329;SDS011;6734;48.638;8.896;2023-01-01T10:00:34;9.87;;;5.93;;
13329;SDS011;6734;48.638;8.896;2023-01-01T10:05:48;7.53;;;5.93;;
13329;SDS011;6734;48.638;8.896;2023-01-01T10:11:03;7.00;;;5.07;;
13329;SDS011;6734;48.638;8.896;2023-01-01T10:13:37;9.77;;;5.60;;
13329;SDS011;6734;48.638;8.896;2023-01-01T10:16:11;9.57;;;5.80;;
13329;SDS011;6734;48.638;8.896;2023-01-01T10:18:39;9.17;;;5.47;;
13329;SDS011;6734;48.638;8.896;2023-01-01T10:21:11;7.43;;;5.27;;
13329;SDS011;6734;48.638;8.896;2023-01-01T10:23:47;8.27;;;5.23;;
13329;SDS011;6734;48.638;8.896;2023-01-01T10:26:19;8.77;;;5.70;;
13329;SDS011;6734;48.638;8.896;2023-01-01T10:31:33;9.97;;;5.87;;
13329;SDS011;6734;48.638;8.896;2023-01-01T10:34:10;9.07;;;5.90;;
13329;SDS011;6734;48.638;8.896;2023-01-01T10:36:37;8.23;;;5.47;;
13329;SDS011;6734;48.638;8.896;2023-01-01T10:39:03;10.07;;;5.40;;
13329;SDS011;6734;48.638;8.896;2023-01-01T10:41:29;7.47;;;5.77;;
13329;SDS011;6734;48.638;8.896;2023-01-01T10:43:55;8.83;;;5.27;;
13329;SDS011;6734;48.638;8.896;2023-01-01T10:46:21;9.67;;;5.90;;
13329;SDS011;6734;48.638;8.896;2023-01-01T10:51:31;8.53;;;4.93;;
13329;SDS011;6734;48.638;8.896;2023-01-01T10:54:00;8.70;;;4.93;;
13329;SDS011;6734;48.638;8.896;2023-01-01T10:56:27;6.07;;;4.70;;
13329;SDS011;6734;48.638;8.896;2023-01-01T10:59:02;9.07;;;5.20;;
13329;SDS011;6734;48.638;8.896;2023-01-01T11:01:29;6.37;;;4.73;;
13329;SDS011;6734;48.638;8.896;2023-01-01T11:04:00;7.60;;;4.63;;
13329;SDS011;6734;48.638;8.896;2023-01-01T11:06:33;7.43;;;5.20;;
13329;SDS011;6734;48.638;8.896;2023-01-01T11:09:01;8.00;;;4.50;;
13329;SDS011;6734;48.638;8.896;2023-01-01T11:11:28;11.27;;;4.97;;
13329;SDS011;6734;48.638;8.896;2023-01-01T11:14:00;7.03;;;4.33;;
13329;SDS011;6734;48.638;8.896;2023-01-01T11:16:30;8.63;;;4.63;;
13329;SDS011;6734;48.638;8.896;2023-01-01T11:19:03;9.10;;;4.40;;
13329;SDS011;6734;48.638;8.896;2023-01-01T11:21:31;8.20;;;4.83;;
13329;SDS011;6734;48.638;8.896;2023-01-01T11:26:45;8.37;;;4.23;;
13329;SDS011;6734;48.638;8.896;2023-01-01T11:31:39;5.50;;;4.10;;
13329;SDS011;6734;48.638;8.896;2023-01-01T11:34:22;6.03;;;4.10;;
13329;SDS011;6734;48.638;8.896;2023-01-01T11:36:51;6.47;;;4.27;;
13329;SDS011;6734;48.638;8.896;2023-01-01T11:39:29;8.03;;;4.10;;
13329;SDS011;6734;48.638;8.896;2023-01-01T11:41:57;7.47;;;4.50;;
13329;SDS011;6734;48.638;8.896;2023-01-01T11:46:58;5.97;;;4.43;;
13329;SDS011;6734;48.638;8.896;2023-01-01T11:49:24;8.17;;;4.13;;
13329;SDS011;6734;48.638;8.896;2023-01-01T11:51:52;5.97;;;3.57;;
13329;SDS011;6734;48.638;8.896;2023-01-01T11:56:54;7.10;;;3.43;;
13329;SDS011;6734;48.638;8.896;2023-01-01T11:59:28;6.80;;;3.90;;
13329;SDS011;6734;48.638;8.896;2023-01-01T12:01:58;4.77;;;3.50;;
13329;SDS011;6734;48.638;8.896;2023-01-01T12:04:37;4.83;;;3.50;;
13329;SDS011;6734;48.638;8.896;2023-01-01T12:07:06;5.57;;;3.60;;
13329;SDS011;6734;48.638;8.896;2023-01-01T12:10:03;5.17;;;3.17;;
13329;SDS011;6734;48.638;8.896;2023-01-01T12:12:40;5.20;;;3.53;;
13329;SDS011;6734;48.638;8.896;2023-01-01T12:17:37;5.90;;;3.63;;
13329;SDS011;6734;48.638;8.896;2023-01-01T12:22:35;12.80;;;8.60;;
13329;SDS011;6734;48.638;8.896;2023-01-01T12:25:01;4.80;;;3.43;;
13329;SDS011;6734;48.638;8.896;2023-01-01T12:30:18;4.93;;;3.47;;
13329;SDS011;6734;48.638;8.896;2023-01-01T12:38:20;7.03;;;3.87;;
13329;SDS011;6734;48.638;8.896;2023-01-01T12:43:30;4.67;;;3.17;;
13329;SDS011;6734;48.638;8.896;2023-01-01T12:57:07;5.37;;;3.00;;
13329;SDS011;6734;48.638;8.896;2023-01-01T12:59:42;4.30;;;2.67;;
13329;SDS011;6734;48.638;8.896;2023-01-01T13:02:15;3.80;;;2.63;;
13329;SDS011;6734;48.638;8.896;2023-01-01T13:04:43;3.90;;;2.67;;
13329;SDS011;6734;48.638;8.896;2023-01-01T13:07:11;5.03;;;2.80;;
13329;SDS011;6734;48.638;8.896;2023-01-01T13:09:40;6.33;;;3.03;;
13329;SDS011;6734;48.638;8.896;2023-01-01T13:12:19;84.70;;;39.47;;
13329;SDS011;6734;48.638;8.896;2023-01-01T13:14:48;9.20;;;5.00;;
13329;SDS011;6734;48.638;8.896;2023-01-01T13:17:18;5.17;;;3.00;;
13329;SDS011;6734;48.638;8.896;2023-01-01T13:19:51;3.67;;;2.80;;
13329;SDS011;6734;48.638;8.896;2023-01-01T13:43:50;5.17;;;3.30;;
13329;SDS011;6734;48.638;8.896;2023-01-01T13:46:16;5.83;;;3.00;;
13329;SDS011;6734;48.638;8.896;2023-01-01T13:56:45;7.50;;;3.10;;
13329;SDS011;6734;48.638;8.896;2023-01-01T14:04:48;4.10;;;2.40;;
13329;SDS011;6734;48.638;8.896;2023-01-01T14:07:23;7.53;;;2.43;;
13329;SDS011;6734;48.638;8.896;2023-01-01T14:09:50;6.13;;;2.40;;
13329;SDS011;6734;48.638;8.896;2023-01-01T14:12:17;4.57;;;2.20;;
13329;SDS011;6734;48.638;8.896;2023-01-01T14:14:44;4.73;;;2.27;;
13329;SDS011;6734;48.638;8.896;2023-01-01T14:17:11;4.63;;;2.40;;
13329;SDS011;6734;48.638;8.896;2023-01-01T14:19:39;6.57;;;2.40;;
13329;SDS011;6734;48.638;8.896;2023-01-01T14:22:06;4.43;;;2.17;;
13329;SDS011;6734;48.638;8.896;2023-01-01T14:24:32;4.53;;;2.53;;
13329;SDS011;6734;48.638;8.896;2023-01-01T14:27:04;3.10;;;2.20;;
13329;SDS011;6734;48.638;8.896;2023-01-01T14:29:30;4.33;;;2.10;;
13329;SDS011;6734;48.638;8.896;2023-01-01T14:31:57;5.70;;;2.33;;
13329;SDS011;6734;48.638;8.896;2023-01-01T14:34:28;6.37;;;3.60;;
13329;SDS011;6734;48.638;8.896;2023-01-01T14:36:56;5.93;;;3.53;;
13329;SDS011;6734;48.638;8.896;2023-01-01T14:39:26;13.20;;;6.37;;
13329;SDS011;6734;48.638;8.896;2023-01-01T14:41:53;36.20;;;16.63;;
13329;SDS011;6734;48.638;8.896;2023-01-01T14:44:21;19.17;;;8.77;;
13329;SDS011;6734;48.638;8.896;2023-01-01T14:46:51;9.83;;;5.00;;
13329;SDS011;6734;48.638;8.896;2023-01-01T14:49:22;13.53;;;5.80;;
13329;SDS011;6734;48.638;8.896;2023-01-01T14:51:52;9.00;;;5.30;;
13329;SDS011;6734;48.638;8.896;2023-01-01T14:54:20;6.57;;;3.87;;
13329;SDS011;6734;48.638;8.896;2023-01-01T14:56:47;6.17;;;2.97;;
13329;SDS011;6734;48.638;8.896;2023-01-01T14:59:25;5.53;;;2.73;;
13329;SDS011;6734;48.638;8.896;2023-01-01T15:02:02;4.13;;;2.67;;
13329;SDS011;6734;48.638;8.896;2023-01-01T15:04:37;5.37;;;2.90;;
13329;SDS011;6734;48.638;8.896;2023-01-01T15:07:04;7.60;;;2.87;;
13329;SDS011;6734;48.638;8.896;2023-01-01T15:09:30;13.80;;;7.60;;
13329;SDS011;6734;48.638;8.896;2023-01-01T15:11:57;7.13;;;3.67;;
13329;SDS011;6734;48.638;8.896;2023-01-01T15:17:06;4.93;;;3.07;;
13329;SDS011;6734;48.638;8.896;2023-01-01T15:19:32;6.30;;;3.07;;
13329;SDS011;6734;48.638;8.896;2023-01-01T15:22:06;6.10;;;2.83;;
13329;SDS011;6734;48.638;8.896;2023-01-01T15:24:33;6.30;;;3.40;;
13329;SDS011;6734;48.638;8.896;2023-01-01T15:27:02;8.60;;;3.27;;
13329;SDS011;6734;48.638;8.896;2023-01-01T15:29:31;4.37;;;2.73;;
13329;SDS011;6734;48.638;8.896;2023-01-01T15:32:00;4.57;;;2.97;;
13329;SDS011;6734;48.638;8.896;2023-01-01T15:34:30;5.50;;;3.60;;
13329;SDS011;6734;48.638;8.896;2023-01-01T15:39:47;17.07;;;11.93;;
13329;SDS011;6734;48.638;8.896;2023-01-01T15:42:35;11.37;;;7.40;;
13329;SDS011;6734;48.638;8.896;2023-01-01T15:47:50;7.47;;;4.00;;
13329;SDS011;6734;48.638;8.896;2023-01-01T15:52:41;6.83;;;3.57;;
13329;SDS011;6734;48.638;8.896;2023-01-01T15:55:14;5.97;;;4.00;;
13329;SDS011;6734;48.638;8.896;2023-01-01T15:57:44;8.27;;;5.50;;
13329;SDS011;6734;48.638;8.896;2023-01-01T16:00:26;10.50;;;6.30;;
13329;SDS011;6734;48.638;8.896;2023-01-01T16:02:55;7.00;;;4.43;;
13329;SDS011;6734;48.638;8.896;2023-01-01T16:05:23;9.23;;;5.87;;
13329;SDS011;6734;48.638;8.896;2023-01-01T16:08:00;7.77;;;5.03;;
13329;SDS011;6734;48.638;8.896;2023-01-01T16:10:27;8.17;;;5.70;;
13329;SDS011;6734;48.638;8.896;2023-01-01T16:12:53;7.70;;;4.53;;
13329;SDS011;6734;48.638;8.896;2023-01-01T16:15:19;9.47;;;5.60;;
13329;SDS011;6734;48.638;8.896;2023-01-01T16:17:44;9.90;;;5.43;;
13329;SDS011;6734;48.638;8.896;2023-01-01T16:20:17;7.67;;;4.80;;
13329;SDS011;6734;48.638;8.896;2023-01-01T16:22:43;10.80;;;5.20;;
13329;SDS011;6734;48.638;8.896;2023-01-01T16:25:13;10.60;;;6.00;;
13329;SDS011;6734;48.638;8.896;2023-01-01T16:27:41;10.07;;;5.77;;
13329;SDS011;6734;48.638;8.896;2023-01-01T16:30:07;8.30;;;6.03;;
13329;SDS011;6734;48.638;8.896;2023-01-01T16:32:33;11.93;;;6.17;;
13329;SDS011;6734;48.638;8.896;2023-01-01T16:34:58;12.33;;;6.90;;
13329;SDS011;6734;48.638;8.896;2023-01-01T16:37:24;20.97;;;12.33;;
13329;SDS011;6734;48.638;8.896;2023-01-01T16:39:50;24.27;;;15.60;;
13329;SDS011;6734;48.638;8.896;2023-01-01T16:42:16;12.60;;;9.93;;
13329;SDS011;6734;48.638;8.896;2023-01-01T16:44:42;11.97;;;7.50;;
13329;SDS011;6734;48.638;8.896;2023-01-01T16:47:08;19.33;;;16.17;;
13329;SDS011;6734;48.638;8.896;2023-01-01T16:49:33;16.07;;;11.87;;
13329;SDS011;6734;48.638;8.896;2023-01-01T16:51:59;11.53;;;7.43;;
13329;SDS011;6734;48.638;8.896;2023-01-01T16:54:25;7.03;;;4.93;;
13329;SDS011;6734;48.638;8.896;2023-01-01T16:56:50;8.20;;;4.80;;
13329;SDS011;6734;48.638;8.896;2023-01-01T16:59:16;7.83;;;4.20;;
13329;SDS011;6734;48.638;8.896;2023-01-01T17:01:42;9.73;;;4.37;;
13329;SDS011;6734;48.638;8.896;2023-01-01T17:04:08;8.33;;;4.53;;
13329;SDS011;6734;48.638;8.896;2023-01-01T17:06:36;8.97;;;4.87;;
13329;SDS011;6734;48.638;8.896;2023-01-01T17:09:02;8.07;;;4.77;;
13329;SDS011;6734;48.638;8.896;2023-01-01T17:11:28;8.23;;;4.17;;